Time;durP1;ratioP1;P1;durP2;ratioP2;P2;SDS_P1;SDS_P2;PMS_P1;PMS_P2;Temp;Humidity;BMP_temperature;BMP_pressure;BME280_temperature;BME280_humidity;BME280_pressure;Samples;Min_cycle;Max_cycle;Signal;HPM_P1;HPM_P2
2022/09/20 00:01:09;;;;;;;10.73;4.72;;;;;;;13.25;75.99;102168.13;6118314;23;20008;-87
2022/09/20 00:03:36;;;;;;;12.45;4.68;;;;;;;13.30;76.26;102174.19;6093249;23;20092;-88
2022/09/20 00:06:03;;;;;;;9.00;4.03;;;;;;;13.31;75.63;102169.75;6119216;23;19998;-88
2022/09/20 00:08:29;;;;;;;9.88;4.93;;;;;;;13.30;76.62;102181.28;6120254;23;20010;-88
2022/09/20 00:11:00;;;;;;;10.82;5.03;;;;;;;13.17;76.63;102168.31;6119163;23;20312;-88
2022/09/20 00:13:25;;;;;;;10.20;4.82;;;;;;;13.20;76.33;102172.69;6119010;23;20501;-87
2022/09/20 00:15:51;;;;;;;9.38;4.35;;;;;;;13.15;76.65;102172.81;6120260;23;20071;-87
2022/09/20 00:18:16;;;;;;;7.13;4.50;;;;;;;13.09;77.00;102169.47;6122201;23;20438;-88
2022/09/20 00:20:46;;;;;;;8.98;4.68;;;;;;;13.11;76.83;102179.13;6119723;23;20009;-87
2022/09/20 00:23:11;;;;;;;8.73;4.88;;;;;;;12.99;77.48;102167.06;6120479;23;20010;-87
2022/09/20 00:25:36;;;;;;;12.38;4.88;;;;;;;12.93;77.30;102151.34;6122057;23;20018;-88
2022/09/20 00:28:02;;;;;;;8.40;4.78;;;;;;;12.80;77.74;102152.59;6121774;23;20372;-87
2022/09/20 00:30:27;;;;;;;8.55;4.78;;;;;;;12.87;77.63;102156.84;6119989;23;20081;-88
2022/09/20 00:32:52;;;;;;;14.32;5.03;;;;;;;13.00;77.49;102166.16;6121041;23;20315;-88
2022/09/20 00:35:18;;;;;;;12.25;4.97;;;;;;;13.00;76.96;102165.28;6121295;23;20475;-87
2022/09/20 00:37:43;;;;;;;9.98;4.57;;;;;;;13.06;77.36;102175.75;6120692;23;20057;-88
2022/09/20 00:40:15;;;;;;;9.40;5.10;;;;;;;13.02;77.66;102169.66;6094642;23;20086;-88
2022/09/20 00:42:40;;;;;;;;;;;;;;;13.20;75.27;102176.22;6095283;23;20438;-87
2022/09/20 00:45:17;;;;;;;9.77;4.87;;;;;;;13.00;77.20;102167.94;6122340;23;19974;-87
2022/09/20 00:47:47;;;;;;;10.63;4.55;;;;;;;12.96;77.16;102168.94;6120998;23;20233;-87
2022/09/20 00:50:41;;;;;;;8.73;4.70;;;;;;;13.05;77.27;102184.59;6121242;23;20002;-88
2022/09/20 00:53:29;;;;;;;7.35;4.50;;;;;;;12.96;76.93;102180.47;6094381;23;20493;-88
2022/09/20 00:55:57;;;;;;;7.38;4.53;;;;;;;12.84;77.33;102174.63;6122245;23;20029;-87
2022/09/20 00:58:26;;;;;;;9.70;4.22;;;;;;;12.84;77.56;102178.13;6122225;23;20009;-87
2022/09/20 01:00:54;;;;;;;9.07;4.78;;;;;;;12.79;77.94;102177.41;6121276;23;20073;-88
2022/09/20 01:03:21;;;;;;;9.80;4.82;;;;;;;12.77;77.67;102166.81;6120480;23;20509;-88
2022/09/20 01:05:49;;;;;;;9.63;4.20;;;;;;;12.72;77.30;102168.72;6094861;23;20478;-88
2022/09/20 01:08:16;;;;;;;6.18;4.20;;;;;;;12.71;77.38;102168.78;6120781;23;20006;-87
2022/09/20 01:10:41;;;;;;;6.82;4.20;;;;;;;12.73;77.02;102170.50;6094649;23;20064;-87
2022/09/20 01:13:07;;;;;;;7.90;4.07;;;;;;;12.70;77.00;102159.94;6094301;23;20705;-88
2022/09/20 01:15:34;;;;;;;6.63;4.60;;;;;;;12.78;76.85;102173.00;6094634;23;20037;-87
2022/09/20 01:18:01;;;;;;;10.23;4.90;;;;;;;12.69;77.98;102171.47;6094210;23;20383;-87
2022/09/20 01:20:40;;;;;;;11.65;4.30;;;;;;;12.75;77.14;102175.75;6120763;23;20010;-87
2022/09/20 01:23:15;;;;;;;9.93;4.30;;;;;;;12.74;77.52;102180.19;6119811;23;20021;-87
2022/09/20 01:25:56;;;;;;;10.32;4.50;;;;;;;12.71;77.22;102166.13;6120697;23;20085;-87
2022/09/20 01:28:23;;;;;;;10.52;4.45;;;;;;;12.82;77.23;102174.63;6121561;23;20510;-87
2022/09/20 01:31:22;;;;;;;9.50;4.18;;;;;;;12.86;76.81;102173.66;6121522;23;20002;-87
2022/09/20 01:33:52;;;;;;;7.55;4.00;;;;;;;12.84;76.57;102171.97;6120736;23;20081;-88
2022/09/20 01:36:23;;;;;;;8.43;4.13;;;;;;;12.83;76.58;102171.09;6121519;23;20033;-87
2022/09/20 01:39:18;;;;;;;8.75;4.13;;;;;;;12.84;76.31;102175.50;6121302;23;20001;-88
2022/09/20 01:41:56;;;;;;;7.90;3.75;;;;;;;12.87;76.48;102167.44;6082217;23;20010;-88
2022/09/20 01:44:37;;;;;;;10.45;4.05;;;;;;;12.91;76.36;102179.69;6120932;23;20009;-87
2022/09/20 01:47:41;;;;;;;8.38;3.97;;;;;;;12.96;76.32;102177.81;6120615;23;20032;-87
2022/09/20 01:50:19;;;;;;;9.13;4.38;;;;;;;12.93;76.63;102179.66;6065475;23;20096;-87
2022/09/20 01:53:09;;;;;;;7.28;3.60;;;;;;;12.96;75.34;102179.56;6093468;23;20005;-88
2022/09/20 01:55:43;;;;;;;8.10;3.53;;;;;;;12.93;76.29;102174.34;6121699;23;20419;-88
2022/09/20 01:58:36;;;;;;;8.13;5.03;;;;;;;12.93;76.35;102175.22;6121301;23;20648;-87
2022/09/20 02:01:33;;;;;;;9.45;4.03;;;;;;;12.96;75.99;102176.91;6094133;23;20010;-88
2022/09/20 02:04:14;;;;;;;9.43;4.38;;;;;;;12.95;76.38;102183.13;6091212;23;20442;-88
2022/09/20 02:07:06;;;;;;;8.77;4.05;;;;;;;12.91;76.40;102168.22;6120945;23;19998;-87
2022/09/20 02:09:56;;;;;;;9.02;3.95;;;;;;;12.93;76.08;102177.88;6121726;23;20002;-87
2022/09/20 02:12:31;;;;;;;8.73;4.13;;;;;;;12.87;76.25;102170.09;6093593;23;20010;-89
2022/09/20 02:15:28;;;;;;;8.63;3.78;;;;;;;12.91;76.00;102174.38;6120415;23;20002;-88
2022/09/20 02:18:27;;;;;;;8.23;3.55;;;;;;;12.86;76.26;102172.78;6117437;23;20006;-87
2022/09/20 02:21:20;;;;;;;10.88;3.35;;;;;;;12.75;76.27;102163.34;6120602;23;20061;-87
2022/09/20 02:24:02;;;;;;;13.80;3.70;;;;;;;12.79;76.07;102165.91;6119856;23;20017;-88
2022/09/20 02:26:55;;;;;;;11.07;3.70;;;;;;;12.87;76.24;102174.50;6121018;23;20017;-87
2022/09/20 02:29:26;;;;;;;8.50;3.10;;;;;;;12.86;76.21;102172.78;6095248;23;20009;-87
2022/09/20 02:32:01;;;;;;;10.13;3.40;;;;;;;12.89;75.47;102170.91;6093743;23;20018;-88
2022/09/20 02:35:06;;;;;;;9.93;3.50;;;;;;;12.87;75.79;102163.91;6117136;23;20014;-87
2022/09/20 02:37:50;;;;;;;6.45;3.30;;;;;;;12.89;75.60;102170.91;6119454;23;20025;-87
2022/09/20 02:40:49;;;;;;;10.25;3.50;;;;;;;12.84;76.33;102164.88;6118880;23;20089;-87
2022/09/20 02:43:46;;;;;;;8.80;3.50;;;;;;;12.80;75.85;102162.34;6094560;23;20010;-88
2022/09/20 02:46:30;;;;;;;6.00;3.30;;;;;;;12.69;76.17;102168.84;6120249;23;20006;-88
2022/09/20 02:49:07;;;;;;;8.25;3.50;;;;;;;12.65;76.65;102161.00;6118851;23;20450;-88
2022/09/20 02:51:39;;;;;;;8.13;3.30;;;;;;;12.72;76.07;102168.72;6120830;23;20009;-87
2022/09/20 02:54:30;;;;;;;6.78;3.45;;;;;;;12.79;75.93;102173.88;6119831;23;20044;-87
2022/09/20 02:57:14;;;;;;;10.27;3.65;;;;;;;12.80;76.38;102175.63;6094410;23;20117;-87
2022/09/20 02:59:51;;;;;;;5.78;3.42;;;;;;;12.75;75.88;102160.69;6120184;23;20323;-87
2022/09/20 03:02:42;;;;;;;7.20;3.53;;;;;;;12.80;75.86;102170.31;6118924;23;20014;-88
2022/09/20 03:05:28;;;;;;;11.75;3.65;;;;;;;12.71;75.75;102150.19;6093578;23;20258;-87
2022/09/20 03:08:13;;;;;;;7.05;3.47;;;;;;;12.76;75.75;102161.56;6093714;23;20010;-88
2022/09/20 03:11:07;;;;;;;9.05;3.90;;;;;;;12.68;76.12;102148.53;6118740;23;20277;-87
2022/09/20 03:13:36;;;;;;;6.50;3.50;;;;;;;12.71;76.14;102158.16;6119854;23;20010;-87
2022/09/20 03:16:26;;;;;;;10.65;3.80;;;;;;;12.69;76.21;102155.56;6119851;23;20005;-87
2022/09/20 03:19:23;;;;;;;7.28;3.03;;;;;;;12.75;76.11;102163.34;6091744;23;20446;-88
2022/09/20 03:22:08;;;;;;;10.35;3.45;;;;;;;12.66;76.08;102150.34;6118172;23;20012;-87
2022/09/20 03:24:53;;;;;;;6.00;2.88;;;;;;;12.74;75.80;102160.75;6094284;23;20413;-88
2022/09/20 03:27:30;;;;;;;8.32;3.30;;;;;;;12.72;76.37;102166.06;6116912;23;20037;-88
2022/09/20 03:30:26;;;;;;;7.88;3.05;;;;;;;12.79;75.84;102160.63;6091229;23;20010;-88
2022/09/20 03:33:11;;;;;;;5.75;3.40;;;;;;;12.75;75.76;102150.06;6119027;23;20587;-88
2022/09/20 03:36:01;;;;;;;6.93;2.75;;;;;;;12.79;75.96;102157.97;6119223;23;20014;-87
2022/09/20 03:38:59;;;;;;;6.70;3.22;;;;;;;12.71;76.56;102156.38;6120603;23;20009;-87
2022/09/20 03:41:39;;;;;;;8.20;3.20;;;;;;;12.74;76.41;102164.25;6118569;23;20093;-88
2022/09/20 03:44:41;;;;;;;7.28;3.05;;;;;;;12.79;76.00;102165.91;6119051;23;20363;-88
2022/09/20 03:47:16;;;;;;;9.52;3.10;;;;;;;12.77;76.40;102174.78;6094190;23;20100;-88
2022/09/20 03:50:14;;;;;;;5.80;2.90;;;;;;;12.77;76.36;102166.81;6118764;23;20040;-87
2022/09/20 03:52:54;;;;;;;5.28;3.22;;;;;;;12.84;76.51;102175.50;6118995;23;20029;-88
2022/09/20 03:55:34;;;;;;;6.97;3.92;;;;;;;12.80;76.80;102176.47;6094718;23;20335;-88
2022/09/20 03:58:23;;;;;;;7.13;3.65;;;;;;;12.83;76.45;102167.56;6120016;23;20006;-88
2022/09/20 04:01:08;;;;;;;6.65;3.40;;;;;;;12.84;76.35;102178.13;6121102;23;20250;-88
2022/09/20 04:03:52;;;;;;;5.30;3.30;;;;;;;12.84;76.58;102170.19;6120374;23;20419;-88
2022/09/20 04:06:51;;;;;;;6.32;3.38;;;;;;;12.76;76.42;102146.50;6094059;23;20017;-88
2022/09/20 04:09:41;;;;;;;9.52;3.50;;;;;;;12.75;76.79;102160.69;6119477;23;20022;-88
2022/09/20 04:12:25;;;;;;;6.38;3.58;;;;;;;12.79;77.21;102165.91;6093547;23;20496;-88
2022/09/20 04:15:19;;;;;;;8.45;3.38;;;;;;;12.83;76.66;102162.28;6117730;23;20002;-88
2022/09/20 04:18:23;;;;;;;7.45;3.55;;;;;;;12.82;76.59;102158.72;6117217;23;20002;-87
2022/09/20 04:20:56;;;;;;;6.57;3.50;;;;;;;12.80;76.92;102162.34;6119838;23;20280;-88
2022/09/20 04:23:33;;;;;;;7.50;3.42;;;;;;;12.80;77.27;102157.03;6093759;23;20006;-87
2022/09/20 04:26:01;;;;;;;9.25;3.60;;;;;;;12.70;76.77;102149.34;6094629;23;20017;-88
2022/09/20 04:28:51;;;;;;;5.95;3.47;;;;;;;12.86;76.67;102159.50;6119975;23;20016;-88
2022/09/20 04:31:40;;;;;;;8.38;3.72;;;;;;;12.86;76.82;102167.47;6093057;23;20067;-88
2022/09/20 04:34:15;;;;;;;5.70;3.33;;;;;;;12.76;76.91;102153.59;6118952;23;20013;-87
2022/09/20 04:37:01;;;;;;;7.28;3.08;;;;;;;12.84;76.52;102158.69;6093968;23;20008;-88
2022/09/20 04:39:37;;;;;;;12.10;4.10;;;;;;;12.76;77.28;102157.13;6118691;23;20017;-88
2022/09/20 04:42:14;;;;;;;11.45;3.72;;;;;;;12.75;77.01;102149.22;6118546;23;20001;-88
2022/09/20 04:45:07;;;;;;;7.35;3.33;;;;;;;12.77;76.79;102161.50;6119364;23;20010;-87
2022/09/20 04:48:07;;;;;;;8.02;3.95;;;;;;;12.81;76.90;102172.03;6119153;23;20084;-88
2022/09/20 04:51:00;;;;;;;7.63;3.72;;;;;;;12.80;76.46;102176.47;6093178;23;20001;-88
2022/09/20 04:53:36;;;;;;;8.98;3.40;;;;;;;12.82;76.73;102173.78;6118612;23;20006;-88
2022/09/20 04:56:13;;;;;;;10.65;3.65;;;;;;;12.74;77.11;102164.25;6093581;23;20038;-88
2022/09/20 04:58:51;;;;;;;6.10;3.25;;;;;;;12.75;76.91;102173.97;6093760;23;20016;-88
2022/09/20 05:01:45;;;;;;;6.88;3.58;;;;;;;12.77;76.69;102177.41;6094027;23;20451;-88
2022/09/20 05:04:46;;;;;;;8.23;3.38;;;;;;;12.79;76.19;102180.06;6120089;23;20006;-89
2022/09/20 05:07:40;;;;;;;10.05;3.20;;;;;;;12.79;76.79;102192.47;6095463;23;20018;-87
2022/09/20 05:10:24;;;;;;;4.80;2.90;;;;;;;12.77;76.68;102185.38;6122540;23;20060;-88
2022/09/20 05:13:28;;;;;;;8.60;2.95;;;;;;;12.76;76.53;102183.66;6094542;23;20061;-88
2022/09/20 05:16:04;;;;;;;6.45;3.15;;;;;;;12.75;76.42;102181.06;6119157;23;20013;-88
2022/09/20 05:18:58;;;;;;;8.43;3.72;;;;;;;12.73;76.78;102182.91;6095838;23;20065;-88
2022/09/20 05:22:09;;;;;;;7.22;3.72;;;;;;;12.73;76.46;102188.19;6121620;23;20419;-88
2022/09/20 05:24:53;;;;;;;12.27;3.90;;;;;;;12.67;77.30;102197.16;6080107;23;20077;-88
2022/09/20 05:27:52;;;;;;;7.35;3.70;;;;;;;12.63;76.90;102206.13;6094170;23;20549;-88
2022/09/20 05:30:32;;;;;;;6.75;3.38;;;;;;;12.58;77.31;102199.19;6094815;23;20006;-87
2022/09/20 05:33:27;;;;;;;7.35;3.40;;;;;;;12.55;77.58;102197.53;6120766;23;20092;-88
2022/09/20 05:36:07;;;;;;;8.43;3.75;;;;;;;12.54;77.64;102201.06;6092751;23;20040;-87
2022/09/20 05:38:58;;;;;;;8.90;3.88;;;;;;;12.48;77.79;102214.50;6117162;23;20465;-88
2022/09/20 05:41:53;;;;;;;4.75;3.05;;;;;;;12.45;77.78;102206.59;6094701;23;20006;-88
2022/09/20 05:44:22;;;;;;;6.45;3.92;;;;;;;12.47;78.08;102215.41;6095066;23;20166;-87
2022/09/20 05:47:07;;;;;;;11.15;4.05;;;;;;;12.49;77.97;102205.63;6119615;23;20021;-87
2022/09/20 05:50:17;;;;;;;6.88;4.00;;;;;;;12.54;77.24;102208.16;6120113;23;20086;-87
2022/09/20 05:53:14;;;;;;;10.55;4.30;;;;;;;12.56;77.71;102219.63;5974329;24;20067;-88
2022/09/20 05:55:54;;;;;;;9.77;4.57;;;;;;;12.58;78.41;102223.09;5974590;24;20109;-87
2022/09/20 05:58:57;;;;;;;7.10;4.32;;;;;;;12.68;78.09;102224.56;6092053;23;20016;-87
2022/09/20 06:01:28;;;;;;;8.55;4.32;;;;;;;12.68;77.84;102213.97;6093140;23;20013;-88
2022/09/20 06:04:16;;;;;;;8.63;4.50;;;;;;;12.86;77.60;102226.72;6095321;23;20390;-88
2022/09/20 06:07:03;;;;;;;6.70;4.30;;;;;;;12.93;77.43;102230.09;6119542;23;20392;-88
2022/09/20 06:09:49;;;;;;;7.07;4.32;;;;;;;13.00;77.29;102237.84;6120541;23;20477;-88
2022/09/20 06:12:41;;;;;;;5.90;4.07;;;;;;;12.99;77.31;102235.22;6120714;23;19997;-88
2022/09/20 06:15:24;;;;;;;8.93;4.47;;;;;;;13.04;76.92;102235.97;6094171;23;20431;-89
2022/09/20 06:18:01;;;;;;;8.07;3.85;;;;;;;12.94;77.49;102234.50;6094942;23;20006;-89
2022/09/20 06:20:34;;;;;;;5.82;3.90;;;;;;;12.97;77.64;102239.72;6093677;23;20554;-89
2022/09/20 06:23:04;;;;;;;4.63;3.60;;;;;;;12.88;77.67;102232.00;6120467;23;20035;-89
2022/09/20 06:25:42;;;;;;;5.57;3.85;;;;;;;12.89;77.34;102237.28;6120613;23;20422;-89
2022/09/20 06:28:19;;;;;;;5.18;3.67;;;;;;;12.95;77.61;102236.22;6120498;23;20323;-89
2022/09/20 06:30:50;;;;;;;5.85;3.95;;;;;;;13.01;78.01;102247.56;6119035;23;20006;-89
2022/09/20 06:33:19;;;;;;;9.98;4.70;;;;;;;13.00;77.51;102229.00;6119318;23;20005;-89
2022/09/20 06:41:25;;;;;;;5.97;4.30;;;;;;;13.10;76.68;102232.25;6118990;23;20006;-89
2022/09/20 06:41:56;;;;;;;6.22;3.92;;;;;;;13.19;76.78;102232.00;6087634;23;20281;-89
2022/09/20 06:44:22;;;;;;;8.98;3.92;;;;;;;13.23;76.60;102234.56;6093684;23;20033;-89
2022/09/20 06:46:47;;;;;;;6.88;3.70;;;;;;;13.29;76.03;102246.81;6094332;23;20013;-89
2022/09/20 06:49:12;;;;;;;6.18;3.50;;;;;;;13.26;75.77;102241.59;6120671;23;20033;-89
2022/09/20 06:51:38;;;;;;;5.78;3.70;;;;;;;13.28;75.47;102245.91;6092310;23;20438;-89
2022/09/20 06:54:05;;;;;;;8.05;3.65;;;;;;;13.37;76.30;102247.44;6119476;23;20006;-89
2022/09/20 06:56:35;;;;;;;7.57;3.80;;;;;;;13.49;75.85;102248.88;6121091;23;20028;-89
2022/09/20 06:59:03;;;;;;;9.02;4.05;;;;;;;13.58;75.93;102253.06;6121412;23;20013;-90
2022/09/20 07:01:28;;;;;;;7.15;3.83;;;;;;;13.53;75.31;102239.91;6119565;23;20343;-89
2022/09/20 07:03:53;;;;;;;7.45;3.80;;;;;;;13.54;75.58;102246.97;6119829;23;20006;-90
2022/09/20 07:06:19;;;;;;;7.28;3.92;;;;;;;13.60;75.32;102243.25;6119972;23;20092;-90
2022/09/20 07:08:45;;;;;;;7.18;3.78;;;;;;;13.67;74.96;102255.44;6120777;23;20013;-90
2022/09/20 07:11:15;;;;;;;8.40;4.03;;;;;;;13.73;75.11;102240.16;6120583;23;20005;-89
2022/09/20 07:13:41;;;;;;;7.25;3.80;;;;;;;13.87;73.98;102244.19;6093359;23;20463;-89
2022/09/20 07:16:07;;;;;;;5.88;3.60;;;;;;;13.94;73.66;102243.06;6119896;23;20444;-89
2022/09/20 07:18:33;;;;;;;5.80;3.67;;;;;;;14.02;73.67;102238.38;6121151;23;20130;-89
2022/09/20 07:21:02;;;;;;;8.88;3.42;;;;;;;14.08;73.53;102248.78;6119402;23;20434;-89
2022/09/20 07:23:28;;;;;;;6.82;3.60;;;;;;;14.19;73.26;102251.13;6117005;23;20021;-89
2022/09/20 07:25:59;;;;;;;6.45;3.50;;;;;;;14.30;72.76;102263.13;6092922;23;20486;-89
2022/09/20 07:28:26;;;;;;;7.68;3.55;;;;;;;14.37;72.84;102244.34;6093676;23;20061;-89
2022/09/20 07:30:52;;;;;;;8.00;3.30;;;;;;;14.45;72.94;102243.13;6095473;23;20434;-89
2022/09/20 07:33:20;;;;;;;6.68;3.80;;;;;;;14.63;72.33;102247.00;6122581;23;20060;-89
2022/09/20 07:35:47;;;;;;;6.32;3.30;;;;;;;14.78;71.35;102259.78;6121881;23;20001;-89
2022/09/20 07:38:13;;;;;;;7.60;3.50;;;;;;;14.87;71.23;102263.91;6122424;23;20005;-90
2022/09/20 07:40:38;;;;;;;5.80;4.03;;;;;;;14.86;70.64;102256.84;6094285;23;20430;-89
2022/09/20 07:43:03;;;;;;;4.32;3.05;;;;;;;15.00;69.43;102273.19;6094265;23;20006;-89
2022/09/20 07:45:30;;;;;;;5.70;3.08;;;;;;;15.02;69.37;102263.38;6119324;23;20385;-89
2022/09/20 07:47:57;;;;;;;7.05;3.05;;;;;;;15.26;69.51;102280.25;6120288;23;20002;-89
2022/09/20 07:50:23;;;;;;;6.53;3.55;;;;;;;15.52;68.73;102284.59;6118501;23;20430;-89
2022/09/20 07:52:48;;;;;;;7.38;3.03;;;;;;;15.85;68.48;102284.25;6118155;23;20012;-90
2022/09/20 07:55:14;;;;;;;6.60;2.60;;;;;;;16.27;66.96;102281.69;6093953;23;20008;-89
2022/09/20 07:57:39;;;;;;;6.40;2.78;;;;;;;16.41;64.44;102282.91;6093745;23;20045;-88
2022/09/20 08:00:06;;;;;;;6.82;3.33;;;;;;;16.40;64.32;102282.03;6093429;23;20081;-89
2022/09/20 08:02:31;;;;;;;5.95;2.47;;;;;;;16.42;64.07;102284.66;6118530;23;20006;-89
2022/09/20 08:04:57;;;;;;;6.50;2.50;;;;;;;16.62;64.74;102278.47;6093168;23;20390;-88
2022/09/20 08:07:23;;;;;;;4.55;2.95;;;;;;;16.96;63.38;102280.59;6119218;23;20367;-88
2022/09/20 08:09:48;;;;;;;5.82;2.35;;;;;;;17.21;61.41;102283.91;6120076;23;20006;-89
2022/09/20 08:12:13;;;;;;;7.30;2.67;;;;;;;17.24;60.84;102275.75;6093631;23;20030;-88
2022/09/20 08:14:39;;;;;;;8.10;2.53;;;;;;;17.54;60.49;102277.97;6091928;23;20033;-88
2022/09/20 08:17:05;;;;;;;6.47;2.30;;;;;;;17.63;59.77;102285.56;6118128;23;20366;-87
2022/09/20 08:19:30;;;;;;;5.38;2.58;;;;;;;17.79;60.38;102273.22;6092833;23;20090;-88
2022/09/20 08:21:55;;;;;;;3.78;2.50;;;;;;;17.68;59.56;102277.31;6115539;23;20047;-87
2022/09/20 08:24:21;;;;;;;7.00;2.67;;;;;;;17.91;59.73;102282.50;6117934;23;20018;-88
2022/09/20 08:26:47;;;;;;;6.07;2.35;;;;;;;18.27;59.00;102284.28;6119015;23;20480;-88
2022/09/20 08:29:14;;;;;;;6.57;2.20;;;;;;;18.37;57.47;102280.22;6093123;23;20359;-88
2022/09/20 08:31:41;;;;;;;5.15;2.15;;;;;;;18.75;56.84;102288.19;6093345;23;20002;-88
2022/09/20 08:34:08;;;;;;;7.43;2.42;;;;;;;18.96;54.76;102286.19;6093340;23;20399;-88
2022/09/20 08:36:36;;;;;;;5.68;2.35;;;;;;;19.20;53.74;102282.19;6119938;23;20002;-88
2022/09/20 08:39:01;;;;;;;5.20;2.05;;;;;;;19.61;53.21;102288.03;6120916;23;20430;-88
2022/09/20 08:41:37;;;;;;;7.53;2.45;;;;;;;19.99;54.30;102292.22;6122180;23;20010;-88
2022/09/20 08:44:13;;;;;;;6.13;1.80;;;;;;;20.29;51.40;102297.66;6120098;23;20048;-89
2022/09/20 08:46:42;;;;;;;4.35;1.70;;;;;;;20.41;49.86;102298.75;6095251;23;20121;-88
2022/09/20 08:49:16;;;;;;;4.20;1.65;;;;;;;20.57;49.56;102294.25;6120161;23;20057;-88
2022/09/20 08:51:42;;;;;;;5.50;1.50;;;;;;;20.64;48.17;102303.66;6119856;23;20431;-89
2022/09/20 08:54:12;;;;;;;6.35;1.77;;;;;;;20.76;49.00;102299.41;6120344;23;20002;-89
2022/09/20 08:56:37;;;;;;;7.63;2.03;;;;;;;21.08;48.35;102301.00;6120875;23;20001;-90
2022/09/20 08:59:06;;;;;;;4.15;1.55;;;;;;;21.48;46.56;102295.84;6096025;23;20029;-89
2022/09/20 09:01:32;;;;;;;6.43;1.60;;;;;;;21.79;45.43;102299.31;6095067;23;20008;-89
2022/09/20 09:04:11;;;;;;;2.92;1.50;;;;;;;21.71;46.63;102299.78;6094574;23;20284;-90
2022/09/20 09:06:38;;;;;;;6.35;1.73;;;;;;;21.87;45.09;102297.00;6120375;23;20006;-90
2022/09/20 09:09:03;;;;;;;5.22;1.92;;;;;;;22.44;43.92;102304.91;6119306;23;20056;-90
2022/09/20 09:11:28;;;;;;;4.25;1.13;;;;;;;22.39;41.64;102313.31;6120730;23;20009;-90
2022/09/20 09:14:03;;;;;;;3.25;1.00;;;;;;;22.25;45.08;102307.97;6120483;23;20041;-91
2022/09/20 09:16:31;;;;;;;8.73;1.48;;;;;;;22.15;44.21;102306.84;6091329;23;20049;-91
2022/09/20 09:18:57;;;;;;;3.67;1.52;;;;;;;21.78;44.91;102300.28;6093951;23;20418;-91
2022/09/20 09:21:30;;;;;;;3.72;1.15;;;;;;;21.21;45.87;102301.09;6120567;23;20017;-92
2022/09/20 09:24:14;;;;;;;2.85;1.20;;;;;;;21.06;47.21;102299.34;6094753;23;20018;-92
2022/09/20 09:26:42;;;;;;;6.55;1.40;;;;;;;20.80;45.90;102309.03;6095063;23;20014;-92
2022/09/20 09:29:19;;;;;;;6.32;1.20;;;;;;;20.83;47.58;102306.97;6095420;23;20006;-93
2022/09/20 09:31:46;;;;;;;2.13;0.90;;;;;;;20.48;46.46;102303.72;6095308;23;20005;-92
2022/09/20 09:34:37;;;;;;;3.00;1.10;;;;;;;20.15;49.10;102306.50;6120826;23;20044;-93
2022/09/20 09:37:03;;;;;;;8.45;1.10;;;;;;;19.78;46.01;102300.53;6120554;23;20002;-91
2022/09/20 09:39:31;;;;;;;4.60;0.90;;;;;;;19.53;46.87;102300.09;6121722;23;20127;-92
2022/09/20 09:42:01;;;;;;;6.80;0.98;;;;;;;19.37;46.97;102306.31;6118709;23;20441;-92
2022/09/20 09:44:32;;;;;;;4.75;0.82;;;;;;;19.21;47.73;102305.41;6119327;23;20013;-93
2022/09/20 09:46:58;;;;;;;5.43;0.90;;;;;;;19.08;47.56;102302.50;6093498;23;20017;-93
2022/09/20 09:49:34;;;;;;;5.00;1.00;;;;;;;19.05;48.66;102308.00;6095711;23;20226;-92
2022/09/20 09:52:17;;;;;;;2.55;0.80;;;;;;;19.00;49.95;102309.19;6095373;23;20342;-92
2022/09/20 09:54:47;;;;;;;;;;;;;;;19.15;50.21;102316.44;6094917;23;20006;-92
2022/09/20 09:57:25;;;;;;;3.72;0.60;;;;;;;18.93;49.00;102315.81;6094404;23;19905;-92
2022/09/20 10:00:02;;;;;;;5.03;0.80;;;;;;;18.84;49.85;102315.38;6121423;23;20012;-92
2022/09/20 10:02:54;;;;;;;3.90;0.80;;;;;;;18.94;49.97;102314.88;6120941;23;20475;-89
2022/09/20 10:05:31;;;;;;;7.28;1.63;;;;;;;18.77;49.21;102315.75;6093319;23;20006;-88
2022/09/20 10:08:00;;;;;;;3.22;0.70;;;;;;;18.57;48.89;102316.72;6096561;23;20018;-88
2022/09/20 10:10:34;;;;;;;2.90;1.05;;;;;;;18.36;49.43;102314.16;6122959;23;20005;-88
2022/09/20 10:13:14;;;;;;;5.10;0.70;;;;;;;18.25;50.33;102313.81;6095801;23;20006;-89
2022/09/20 10:15:59;;;;;;;2.85;1.00;;;;;;;18.25;51.02;102324.53;6093047;23;20010;-89
2022/09/20 10:18:49;;;;;;;4.45;1.10;;;;;;;18.16;51.82;102314.28;6095837;23;20013;-88
2022/09/20 10:21:37;;;;;;;6.05;0.85;;;;;;;18.17;50.45;102320.50;6122487;23;20002;-87
2022/09/20 10:24:21;;;;;;;4.65;1.20;;;;;;;18.07;51.95;102317.41;6120832;23;20014;-89
2022/09/20 10:26:52;;;;;;;2.55;0.85;;;;;;;18.18;51.10;102315.06;6093207;23;20461;-89
2022/09/20 10:29:35;;;;;;;5.20;1.20;;;;;;;18.33;52.29;102321.50;6120654;23;20013;-88
2022/09/20 10:32:32;;;;;;;5.38;0.80;;;;;;;19.17;50.52;102324.41;6095462;23;20096;-88
2022/09/20 10:35:23;;;;;;;4.47;0.98;;;;;;;19.43;49.86;102318.50;6120120;23;20033;-90
2022/09/20 10:38:07;;;;;;;5.05;1.10;;;;;;;19.66;49.98;102313.75;6098117;23;20040;-90
2022/09/20 10:44:07;;;;;;;4.72;1.20;;;;;;;20.35;48.89;102316.09;6121845;23;20465;-93
2022/09/20 10:47:05;;;;;;;6.75;1.13;;;;;;;20.63;46.67;102320.75;6093912;23;20020;-93
2022/09/20 10:50:08;;;;;;;4.65;1.10;;;;;;;20.72;45.60;102313.97;6093274;23;20009;-93
2022/09/20 10:52:39;;;;;;;5.22;1.20;;;;;;;20.84;44.77;102310.53;6093049;23;20002;-92
2022/09/20 10:55:20;;;;;;;4.72;1.17;;;;;;;21.28;45.00;102315.06;6089700;23;20460;-92
2022/09/20 10:58:06;;;;;;;3.42;1.40;;;;;;;21.46;45.98;102308.56;6115678;23;20041;-92
2022/09/20 11:00:53;;;;;;;5.20;1.00;;;;;;;21.61;44.29;102312.09;6092139;23;20001;-92
2022/09/20 11:04:06;;;;;;;7.00;1.05;;;;;;;21.48;45.04;102320.06;6091939;23;20036;-92
2022/09/20 11:06:42;;;;;;;;;;;;;;;21.18;44.50;102320.13;5973031;24;20526;-92
2022/09/20 11:09:12;;;;;;;5.18;1.05;;;;;;;20.28;45.29;102312.88;5971594;24;19910;-90
2022/09/20 11:11:53;;;;;;;2.83;0.75;;;;;;;19.96;46.13;102316.53;6063152;23;20017;-90
2022/09/20 11:14:31;;;;;;;2.92;0.85;;;;;;;19.96;47.02;102320.13;6116626;23;20041;-89
2022/09/20 11:17:05;;;;;;;5.63;0.90;;;;;;;21.68;43.16;102317.94;6117351;23;20431;-90
2022/09/20 11:19:59;;;;;;;3.53;0.80;;;;;;;23.66;42.72;102326.13;6092301;23;20006;-90
2022/09/20 11:22:41;;;;;;;3.80;1.25;;;;;;;24.05;39.86;102320.63;6098785;23;20016;-90
2022/09/20 11:25:31;;;;;;;7.03;1.20;;;;;;;23.53;39.95;102332.47;6119359;23;20030;-91
2022/09/20 11:28:06;;;;;;;4.07;0.90;;;;;;;22.53;41.15;102333.09;6095882;23;20018;-91
2022/09/20 11:30:35;;;;;;;7.22;1.25;;;;;;;21.84;41.29;102333.03;6125149;23;20013;-95
2022/09/20 11:33:17;;;;;;;4.07;1.08;;;;;;;21.50;44.10;102334.31;6098415;23;20097;-93
2022/09/20 11:35:53;;;;;;;3.10;0.80;;;;;;;21.29;43.54;102333.78;6133532;23;20002;-95
2022/09/20 11:38:31;;;;;;;4.20;1.02;;;;;;;21.05;42.92;102336.16;6105622;23;20453;-95
2022/09/20 11:41:05;;;;;;;4.80;1.00;;;;;;;20.82;43.67;102342.03;6104134;23;20497;-93
2022/09/20 11:43:33;;;;;;;5.63;1.02;;;;;;;20.56;42.83;102340.88;6104645;23;20010;-95
2022/09/20 11:46:03;;;;;;;2.95;0.60;;;;;;;20.46;43.58;102347.69;6098559;23;20012;-92
2022/09/20 11:48:51;;;;;;;4.53;1.00;;;;;;;20.21;44.39;102324.94;6100297;23;20014;-95
2022/09/20 11:51:51;;;;;;;4.20;0.90;;;;;;;19.97;44.30;102324.53;6099800;23;20034;-94
2022/09/20 11:54:32;;;;;;;2.90;0.88;;;;;;;19.84;44.46;102348.50;6103106;23;20471;-92
2022/09/20 11:56:58;;;;;;;4.75;1.02;;;;;;;19.56;45.66;102350.91;6089902;23;20009;-92
2022/09/20 11:59:39;;;;;;;2.92;0.90;;;;;;;19.40;46.66;102345.50;6096120;23;20002;-92
2022/09/20 12:02:27;;;;;;;3.85;1.00;;;;;;;19.32;47.31;102347.72;6067395;23;20009;-93
2022/09/20 12:04:54;;;;;;;2.15;0.70;;;;;;;19.09;46.37;102359.66;6091934;23;20481;-92
2022/09/20 12:07:28;;;;;;;1.60;0.55;;;;;;;18.92;47.53;102360.50;6090454;23;20064;-93
2022/09/20 12:10:01;;;;;;;3.03;0.80;;;;;;;18.79;48.65;102354.03;6092168;23;20462;-93
2022/09/20 12:12:38;;;;;;;4.00;0.90;;;;;;;18.71;48.50;102351.75;6093735;23;20017;-93
2022/09/20 12:15:30;;;;;;;11.95;1.58;;;;;;;18.68;49.76;102354.56;6093358;23;20427;-91
2022/09/20 12:17:56;;;;;;;7.55;1.15;;;;;;;18.48;48.81;102355.53;6092600;23;20084;-92
2022/09/20 12:20:33;;;;;;;3.60;0.60;;;;;;;18.36;49.99;102356.13;6115977;23;20132;-94